Time;durP1;ratioP1;P1;durP2;ratioP2;P2;SDS_P1;SDS_P2;PMS_P1;PMS_P2;Temp;Humidity;BMP_temperature;BMP_pressure;BME280_temperature;BME280_humidity;BME280_pressure;Samples;Min_cycle;Max_cycle;Signal;HPM_P1;HPM_P2
2022/09/17 00:00:16;;;;;;;;;;;;;;;8.92;100.00;101322.84;5320715;27;20400;-79
2022/09/17 00:02:53;;;;;;;;;;;;;;;8.92;100.00;101322.00;5318269;27;19956;-79
2022/09/17 00:05:24;;;;;;;;;;;;;;;8.95;100.00;101332.41;5320821;27;19951;-79
2022/09/17 00:07:56;;;;;;;;;;;;;;;9.00;100.00;101328.41;5320597;27;20392;-79
2022/09/17 00:10:27;;;;;;;;;;;;;;;9.06;100.00;101335.06;5320847;27;20311;-79
2022/09/17 00:12:58;;;;;;;;;;;;;;;9.07;100.00;101340.25;5322393;27;19920;-79
2022/09/17 00:15:29;;;;;;;;;;;;;;;9.08;100.00;101343.75;5319973;27;19917;-79
2022/09/17 00:18:01;;;;;;;;;;;;;;;9.12;100.00;101341.75;5322174;27;20027;-79
2022/09/17 00:20:36;;;;;;;;;;;;;;;9.09;100.00;101350.78;5320901;27;19950;-79
2022/09/17 00:23:08;;;;;;;;;;;;;;;9.09;100.00;101340.16;5321267;27;19931;-79
2022/09/17 00:25:40;;;;;;;;;;;;;;;9.19;100.00;101345.59;5320535;27;19920;-79
2022/09/17 00:28:12;;;;;;;;;;;;;;;9.13;100.00;101341.59;5320721;27;19928;-80
2022/09/17 00:30:44;;;;;;;;;;;;;;;9.18;100.00;101342.06;5320241;27;19945;-80
2022/09/17 00:33:16;;;;;;;;;;;;;;;9.22;100.00;101340.88;5321808;27;20448;-79
2022/09/17 00:35:56;;;;;;;;;;;;;;;9.26;100.00;101349.47;5321408;27;19923;-79
2022/09/17 00:38:27;;;;;;;;;;;;;;;9.27;100.00;101348.50;5322287;27;20018;-79
2022/09/17 00:40:59;;;;;;;;;;;;;;;9.26;100.00;101352.97;5319470;27;20160;-79
2022/09/17 00:43:44;;;;;;;;;;;;;;;9.30;100.00;101355.41;5322874;27;20023;-79
2022/09/17 00:46:15;;;;;;;;;;;;;;;9.34;100.00;101364.81;5320289;27;20002;-79
2022/09/17 00:48:47;;;;;;;;;;;;;;;9.36;100.00;101352.22;5320281;27;19959;-79
2022/09/17 00:51:21;;;;;;;;;;;;;;;9.35;100.00;101351.41;5321386;27;19920;-79
2022/09/17 00:53:54;;;;;;;;;;;;;;;9.39;100.00;101352.84;5324414;27;19969;-79
2022/09/17 00:56:28;;;;;;;;;;;;;;;9.40;100.00;101359.03;5324895;27;19939;-79
2022/09/17 00:59:00;;;;;;;;;;;;;;;9.35;100.00;101355.88;5321630;27;19924;-79
2022/09/17 01:01:32;;;;;;;;;;;;;;;9.27;100.00;101365.31;5322248;27;20430;-80
2022/09/17 01:04:03;;;;;;;;;;;;;;;9.23;100.00;101363.84;5323748;27;20072;-79
2022/09/17 01:06:34;;;;;;;;;;;;;;;9.22;100.00;101364.84;5323903;27;19916;-79
2022/09/17 01:09:05;;;;;;;;;;;;;;;9.23;100.00;101360.34;5324295;27;19959;-79
2022/09/17 01:11:50;;;;;;;;;;;;;;;9.22;100.00;101371.97;5324279;27;19916;-79
2022/09/17 01:14:50;;;;;;;;;;;;;;;9.24;100.00;101362.91;5323606;27;19974;-79
2022/09/17 01:17:25;;;;;;;;;;;;;;;9.26;100.00;101358.31;5318627;27;20292;-79
2022/09/17 01:20:05;;;;;;;;;;;;;;;9.28;100.00;101356.34;5320954;27;19927;-80
2022/09/17 01:22:45;;;;;;;;;;;;;;;9.34;100.00;101363.00;5321440;27;19920;-79
2022/09/17 01:25:16;;;;;;;;;;;;;;;9.35;100.00;101366.53;5322980;27;19924;-79
2022/09/17 01:27:54;;;;;;;;;;;;;;;9.36;100.00;101373.53;5334064;27;19916;-79
2022/09/17 01:30:28;;;;;;;;;;;;;;;9.37;100.00;101375.25;5307283;28;19960;-79
2022/09/17 01:33:20;;;;;;;;;;;;;;;9.38;100.00;101380.44;5326859;27;19970;-79
2022/09/17 01:35:57;;;;;;;;;;;;;;;9.46;100.00;101378.00;5324012;27;19920;-79
2022/09/17 01:38:30;;;;;;;;;;;;;;;9.47;100.00;101378.88;5326226;27;19916;-79
2022/09/17 01:41:26;;;;;;;;;;;;;;;9.49;100.00;101382.25;5337185;27;19920;-80
2022/09/17 01:44:04;;;;;;;;;;;;;;;9.49;100.00;101384.09;5313303;27;20318;-80
2022/09/17 01:46:40;;;;;;;;;;;;;;;9.48;100.00;101387.69;5331535;27;19922;-80
2022/09/17 01:49:14;;;;;;;;;;;;;;;9.50;100.00;101383.94;5326509;27;19986;-80
2022/09/17 01:51:47;;;;;;;;;;;;;;;9.56;100.00;101390.59;5325495;27;20026;-79
2022/09/17 01:54:26;;;;;;;;;;;;;;;9.58;100.00;101391.31;5339093;27;19912;-79
2022/09/17 01:57:00;;;;;;;;;;;;;;;9.53;100.00;101394.34;5326593;27;19923;-80
2022/09/17 01:59:35;;;;;;;;;;;;;;;9.48;100.00;101385.88;5327830;27;20348;-80
2022/09/17 02:02:09;;;;;;;;;;;;;;;9.40;100.00;101389.16;5323593;27;19955;-79
2022/09/17 02:04:44;;;;;;;;;;;;;;;9.28;100.00;101387.47;5323247;27;19934;-79
2022/09/17 02:07:21;;;;;;;;;;;;;;;9.20;100.00;101387.22;5322779;27;20376;-79
2022/09/17 02:09:56;;;;;;;;;;;;;;;9.15;100.00;101381.41;5322544;27;19924;-79
2022/09/17 02:12:31;;;;;;;;;;;;;;;9.12;100.00;101379.00;5321834;27;19920;-79
2022/09/17 02:15:06;;;;;;;;;;;;;;;9.14;100.00;101390.38;5323707;27;20292;-79
2022/09/17 02:17:48;;;;;;;;;;;;;;;9.15;100.00;101386.72;5322686;27;19927;-79
2022/09/17 02:20:23;;;;;;;;;;;;;;;9.15;100.00;101382.25;5320456;27;20308;-79
2022/09/17 02:22:56;;;;;;;;;;;;;;;9.19;100.00;101380.22;5321884;27;19923;-79
2022/09/17 02:25:32;;;;;;;;;;;;;;;9.21;100.00;101387.09;5326534;27;20027;-79
2022/09/17 02:28:03;;;;;;;;;;;;;;;9.23;100.00;101389.63;5322401;27;19916;-80
2022/09/17 02:30:34;;;;;;;;;;;;;;;9.22;100.00;101390.59;5325407;27;20419;-79
2022/09/17 02:33:08;;;;;;;;;;;;;;;9.19;100.00;101394.34;5320221;27;19966;-80
2022/09/17 02:35:40;;;;;;;;;;;;;;;9.14;100.00;101388.53;5325842;27;20395;-79
2022/09/17 02:38:11;;;;;;;;;;;;;;;9.07;100.00;101396.16;5322218;27;20350;-79
2022/09/17 02:40:47;;;;;;;;;;;;;;;9.04;100.00;101398.19;5323669;27;20030;-80
2022/09/17 02:43:24;;;;;;;;;;;;;;;9.02;100.00;101395.66;5322204;27;20388;-79
2022/09/17 02:46:08;;;;;;;;;;;;;;;8.97;100.00;101402.31;5322803;27;20376;-79
2022/09/17 02:48:46;;;;;;;;;;;;;;;8.97;100.00;101404.97;5321355;27;19916;-79
2022/09/17 02:51:32;;;;;;;;;;;;;;;8.99;100.00;101408.34;5321932;27;19916;-79
2022/09/17 02:54:15;;;;;;;;;;;;;;;8.98;100.00;101406.69;5321885;27;19999;-80
2022/09/17 02:57:06;;;;;;;;;;;;;;;8.88;100.00;101402.03;5322060;27;19919;-79
2022/09/17 02:59:46;;;;;;;;;;;;;;;8.80;100.00;101403.59;5344443;27;20322;-79
2022/09/17 03:02:34;;;;;;;;;;;;;;;8.73;100.00;101399.72;5345340;27;19915;-79
2022/09/17 03:05:07;;;;;;;;;;;;;;;8.66;100.00;101402.84;5326144;27;20284;-79
2022/09/17 03:07:39;;;;;;;;;;;;;;;8.55;100.00;101393.97;5325397;27;20308;-79
2022/09/17 03:10:10;;;;;;;;;;;;;;;8.43;100.00;101411.69;5325836;27;19916;-79
2022/09/17 03:12:41;;;;;;;;;;;;;;;8.39;100.00;101400.41;5323525;27;19926;-79
2022/09/17 03:15:12;;;;;;;;;;;;;;;8.34;100.00;101399.91;5339968;27;19922;-79
2022/09/17 03:17:43;;;;;;;;;;;;;;;8.32;100.00;101407.97;5328359;27;19916;-79
2022/09/17 03:20:15;;;;;;;;;;;;;;;8.33;100.00;101401.72;5326088;27;20104;-79
2022/09/17 03:22:46;;;;;;;;;;;;;;;8.44;100.00;101408.09;5325605;27;19924;-79
2022/09/17 03:25:17;;;;;;;;;;;;;;;8.48;100.00;101401.56;5326726;27;20303;-79
2022/09/17 03:27:49;;;;;;;;;;;;;;;8.51;100.00;101401.34;5330440;27;19923;-79
2022/09/17 03:30:20;;;;;;;;;;;;;;;8.51;100.00;101401.34;5327140;27;20384;-79
2022/09/17 03:32:51;;;;;;;;;;;;;;;8.51;100.00;101396.03;5324929;27;20065;-79
2022/09/17 03:35:22;;;;;;;;;;;;;;;8.52;100.00;101397.72;5326201;27;19920;-79
2022/09/17 03:37:53;;;;;;;;;;;;;;;8.49;100.00;101388.16;5325571;27;20053;-79
2022/09/17 03:40:27;;;;;;;;;;;;;;;8.47;100.00;101400.72;5327042;27;19923;-79
2022/09/17 03:42:58;;;;;;;;;;;;;;;8.40;100.00;101394.16;5325869;27;20572;-79
2022/09/17 03:45:30;;;;;;;;;;;;;;;8.33;100.00;101399.06;5329480;27;19920;-79
2022/09/17 03:48:01;;;;;;;;;;;;;;;8.29;100.00;101399.38;5325679;27;19920;-79
2022/09/17 03:50:32;;;;;;;;;;;;;;;8.30;100.00;101401.94;5328688;27;20380;-79
2022/09/17 03:53:03;;;;;;;;;;;;;;;8.28;100.00;101397.72;5332358;27;19920;-79
2022/09/17 03:55:36;;;;;;;;;;;;;;;8.27;100.00;101398.66;5341736;27;19912;-79
2022/09/17 03:58:07;;;;;;;;;;;;;;;8.19;100.00;101404.56;5326774;27;19916;-79
2022/09/17 04:00:39;;;;;;;;;;;;;;;8.11;100.00;101405.09;5323481;27;20342;-79
2022/09/17 04:03:10;;;;;;;;;;;;;;;8.05;100.00;101407.38;5322614;27;19916;-79
2022/09/17 04:05:41;;;;;;;;;;;;;;;8.08;100.00;101404.47;5338854;27;20619;-79
2022/09/17 04:08:12;;;;;;;;;;;;;;;8.03;100.00;101410.16;5324925;27;19920;-79
2022/09/17 04:10:44;;;;;;;;;;;;;;;7.99;100.00;101407.81;5324678;27;20287;-79
2022/09/17 04:13:15;;;;;;;;;;;;;;;8.03;100.00;101403.97;5322920;27;20064;-79
2022/09/17 04:15:50;;;;;;;;;;;;;;;8.00;100.00;101414.84;5325099;27;20693;-79
2022/09/17 04:18:22;;;;;;;;;;;;;;;7.92;100.00;101418.03;5324464;27;19920;-79
2022/09/17 04:20:53;;;;;;;;;;;;;;;7.86;100.00;101416.69;5324952;27;20403;-79
2022/09/17 04:23:24;;;;;;;;;;;;;;;7.80;100.00;101418.94;5325760;27;20362;-79
2022/09/17 04:25:55;;;;;;;;;;;;;;;7.79;100.00;101426.06;5327167;27;20373;-79
2022/09/17 04:28:26;;;;;;;;;;;;;;;7.81;100.00;101423.28;5328105;27;20275;-79
2022/09/17 04:30:58;;;;;;;;;;;;;;;7.79;100.00;101425.22;5325595;27;20014;-79
2022/09/17 04:33:29;;;;;;;;;;;;;;;7.83;100.00;101421.38;5328040;27;19916;-79
2022/09/17 04:36:00;;;;;;;;;;;;;;;7.90;100.00;101426.13;5329403;27;19920;-79
2022/09/17 04:38:32;;;;;;;;;;;;;;;8.08;100.00;101431.91;5327181;27;19927;-79
2022/09/17 04:41:05;;;;;;;;;;;;;;;8.20;100.00;101430.16;5324855;27;20025;-79
2022/09/17 04:43:36;;;;;;;;;;;;;;;8.31;100.00;101438.19;5325749;27;19924;-79
2022/09/17 04:46:08;;;;;;;;;;;;;;;8.32;100.00;101444.34;5328733;27;19923;-80
2022/09/17 04:48:39;;;;;;;;;;;;;;;8.33;100.00;101438.94;5336867;27;20331;-80
2022/09/17 04:51:10;;;;;;;;;;;;;;;8.39;100.00;101434.97;5330077;27;19948;-80
2022/09/17 04:53:41;;;;;;;;;;;;;;;8.47;100.00;101429.97;5326415;27;19916;-79
2022/09/17 04:56:12;;;;;;;;;;;;;;;8.55;100.00;101418.75;5331907;27;19938;-80
2022/09/17 04:58:44;;;;;;;;;;;;;;;8.55;100.00;101420.56;5328214;27;20445;-80
2022/09/17 05:01:17;;;;;;;;;;;;;;;8.54;100.00;101417.06;5324039;27;19923;-80
2022/09/17 05:03:49;;;;;;;;;;;;;;;8.52;100.00;101429.63;5321572;27;20307;-80
2022/09/17 05:06:20;;;;;;;;;;;;;;;8.52;100.00;101426.97;5324369;27;19916;-80
2022/09/17 05:08:51;;;;;;;;;;;;;;;8.50;100.00;101434.19;5323027;27;19924;-79
2022/09/17 05:11:22;;;;;;;;;;;;;;;8.45;100.00;101433.69;5325234;27;20475;-79
2022/09/17 05:13:53;;;;;;;;;;;;;;;8.37;100.00;101441.38;5324202;27;20280;-80
2022/09/17 05:16:25;;;;;;;;;;;;;;;8.31;100.00;101437.38;5322666;27;19982;-79
2022/09/17 05:18:56;;;;;;;;;;;;;;;8.33;100.00;101438.09;5323987;27;20018;-80
2022/09/17 05:21:28;;;;;;;;;;;;;;;8.27;100.00;101439.38;5324727;27;19973;-79
2022/09/17 05:24:00;;;;;;;;;;;;;;;8.25;100.00;101437.81;5323482;27;20301;-79
2022/09/17 05:26:31;;;;;;;;;;;;;;;8.25;100.00;101445.78;5324230;27;19927;-80
2022/09/17 05:29:03;;;;;;;;;;;;;;;8.23;100.00;101450.34;5322250;27;19924;-79
2022/09/17 05:31:34;;;;;;;;;;;;;;;8.25;100.00;101459.91;5325293;27;19986;-80
2022/09/17 05:34:05;;;;;;;;;;;;;;;8.30;100.00;101462.22;5324316;27;20293;-79
2022/09/17 05:36:37;;;;;;;;;;;;;;;8.36;100.00;101460.94;5324030;27;19920;-79
2022/09/17 05:39:08;;;;;;;;;;;;;;;8.35;100.00;101468.06;5322692;27;21131;-80
2022/09/17 05:41:39;;;;;;;;;;;;;;;8.35;100.00;101453.94;5322719;27;19916;-79
2022/09/17 05:44:10;;;;;;;;;;;;;;;8.47;100.00;101456.56;5322084;27;19924;-79
2022/09/17 05:46:41;;;;;;;;;;;;;;;8.57;100.00;101459.34;5322218;27;19927;-79
2022/09/17 05:49:14;;;;;;;;;;;;;;;8.60;100.00;101458.31;5320432;27;30832;-79
2022/09/17 05:51:47;;;;;;;;;;;;;;;8.62;100.00;101461.69;5333213;27;19916;-79
2022/09/17 05:54:18;;;;;;;;;;;;;;;8.69;100.00;101462.94;5324196;27;19915;-79
2022/09/17 05:56:52;;;;;;;;;;;;;;;8.70;100.00;101473.44;5322537;27;19922;-79
2022/09/17 05:59:24;;;;;;;;;;;;;;;8.76;100.00;101480.13;5323383;27;19932;-79
2022/09/17 06:01:55;;;;;;;;;;;;;;;8.88;100.00;101483.69;5322452;27;19916;-80
2022/09/17 06:04:26;;;;;;;;;;;;;;;8.91;100.00;101488.78;5322755;27;19931;-80
2022/09/17 06:06:57;;;;;;;;;;;;;;;8.94;100.00;101501.84;5321842;27;20358;-80
2022/09/17 06:09:28;;;;;;;;;;;;;;;8.94;100.00;101498.31;5320691;27;20277;-79
2022/09/17 06:11:59;;;;;;;;;;;;;;;9.01;100.00;101503.09;5323427;27;19923;-79
2022/09/17 06:14:31;;;;;;;;;;;;;;;8.96;100.00;101499.03;5322635;27;20015;-80
2022/09/17 06:17:02;;;;;;;;;;;;;;;8.93;100.00;101492.16;5323210;27;20089;-79
2022/09/17 06:19:33;;;;;;;;;;;;;;;8.92;100.00;101500.25;5322375;27;20003;-80
2022/09/17 06:22:04;;;;;;;;;;;;;;;8.89;100.00;101493.38;5323176;27;19924;-77
2022/09/17 06:24:35;;;;;;;;;;;;;;;8.84;100.00;101493.69;5322639;27;19931;-77
2022/09/17 06:27:07;;;;;;;;;;;;;;;8.87;100.00;101489.94;5325623;27;19916;-78
2022/09/17 06:29:39;;;;;;;;;;;;;;;8.88;100.00;101495.16;5323941;27;19920;-79
2022/09/17 06:32:11;;;;;;;;;;;;;;;8.92;100.00;101500.25;5327573;27;20402;-79
2022/09/17 06:34:43;;;;;;;;;;;;;;;9.02;100.00;101493.28;5324218;27;20021;-79
2022/09/17 06:37:14;;;;;;;;;;;;;;;8.91;100.00;101496.75;5324452;27;20407;-79
2022/09/17 06:39:45;;;;;;;;;;;;;;;8.93;100.00;101496.63;5327531;27;19939;-79
2022/09/17 06:42:16;;;;;;;;;;;;;;;9.11;100.00;101497.88;5327154;27;19916;-79
2022/09/17 06:44:47;;;;;;;;;;;;;;;9.66;100.00;101487.47;5326754;27;19966;-80
2022/09/17 06:47:19;;;;;;;;;;;;;;;9.86;100.00;101491.19;5325863;27;20027;-79
2022/09/17 06:49:51;;;;;;;;;;;;;;;9.98;100.00;101486.72;5326114;27;19946;-80
2022/09/17 06:52:22;;;;;;;;;;;;;;;10.04;100.00;101499.53;5327019;27;19923;-80
2022/09/17 06:54:54;;;;;;;;;;;;;;;10.08;100.00;101490.34;5325829;27;19927;-80
2022/09/17 06:57:25;;;;;;;;;;;;;;;10.05;100.00;101485.25;5331403;27;19916;-80
2022/09/17 06:59:56;;;;;;;;;;;;;;;9.95;100.00;101486.97;5316167;27;19927;-80
2022/09/17 07:02:27;;;;;;;;;;;;;;;9.99;100.00;101489.25;5326882;27;20359;-80
2022/09/17 07:04:58;;;;;;;;;;;;;;;10.63;100.00;101489.50;5324729;27;19977;-80
2022/09/17 07:07:30;;;;;;;;;;;;;;;11.57;100.00;101493.13;5325349;27;19920;-80
2022/09/17 07:10:01;;;;;;;;;;;;;;;12.26;100.00;101507.59;5325555;27;19920;-80
2022/09/17 07:12:33;;;;;;;;;;;;;;;12.89;100.00;101504.56;5326946;27;19920;-81
2022/09/17 07:15:04;;;;;;;;;;;;;;;13.20;100.00;101496.34;5326096;27;20422;-81
2022/09/17 07:17:36;;;;;;;;;;;;;;;13.84;100.00;101507.34;5324007;27;19967;-78
2022/09/17 07:20:08;;;;;;;;;;;;;;;14.46;100.00;101510.25;5326569;27;19912;-78
2022/09/17 07:22:39;;;;;;;;;;;;;;;14.65;100.00;101503.94;5324463;27;19916;-78
2022/09/17 07:25:10;;;;;;;;;;;;;;;14.97;100.00;101511.47;5321206;27;20030;-78
2022/09/17 07:27:42;;;;;;;;;;;;;;;15.38;100.00;101506.38;5319985;27;20487;-79
2022/09/17 07:30:14;;;;;;;;;;;;;;;15.67;100.00;101505.19;5323810;27;19916;-80
2022/09/17 07:32:45;;;;;;;;;;;;;;;15.73;100.00;101484.91;5324799;27;19932;-80
2022/09/17 07:35:17;;;;;;;;;;;;;;;16.21;100.00;101483.44;5325367;28;19969;-80
2022/09/17 07:37:48;;;;;;;;;;;;;;;16.49;100.00;101489.38;5318400;27;19916;-80
2022/09/17 07:40:19;;;;;;;;;;;;;;;16.82;100.00;101484.03;5321452;27;19927;-80
2022/09/17 07:42:50;;;;;;;;;;;;;;;17.30;100.00;101476.97;5320604;28;20014;-80
2022/09/17 07:45:21;;;;;;;;;;;;;;;17.82;100.00;101474.78;5319749;27;20364;-80
2022/09/17 07:47:53;;;;;;;;;;;;;;;17.41;100.00;101473.06;5320525;27;19916;-79
2022/09/17 07:50:24;;;;;;;;;;;;;;;17.74;100.00;101472.94;5321009;27;20009;-80
2022/09/17 07:52:55;;;;;;;;;;;;;;;17.89;100.00;101470.41;5322802;27;20059;-80
2022/09/17 07:55:26;;;;;;;;;;;;;;;17.94;100.00;101482.34;5320691;27;19920;-79
2022/09/17 07:57:57;;;;;;;;;;;;;;;18.02;100.00;101473.41;5324066;27;19916;-79
2022/09/17 08:00:29;;;;;;;;;;;;;;;17.45;100.00;101473.56;5322922;27;19916;-80
2022/09/17 08:03:00;;;;;;;;;;;;;;;16.93;100.00;101482.88;5324912;27;19932;-80
2022/09/17 08:05:33;;;;;;;;;;;;;;;17.92;100.00;101468.19;5319706;27;20025;-80
2022/09/17 08:08:05;;;;;;;;;;;;;;;19.15;100.00;101473.78;5313109;27;19974;-79
2022/09/17 08:10:36;;;;;;;;;;;;;;;19.90;100.00;101470.09;5313282;27;20042;-80
2022/09/17 08:13:07;;;;;;;;;;;;;;;20.63;100.00;101477.41;5318411;27;20189;-80
2022/09/17 08:15:39;;;;;;;;;;;;;;;21.11;100.00;101474.91;5327964;27;19938;-80
2022/09/17 08:18:10;;;;;;;;;;;;;;;20.70;100.00;101481.00;5317499;27;21576;-80
2022/09/17 08:20:41;;;;;;;;;;;;;;;20.41;100.00;101477.38;5312244;27;19928;-79
2022/09/17 08:23:12;;;;;;;;;;;;;;;20.99;100.00;101481.91;5319183;27;19927;-80
2022/09/17 08:25:43;;;;;;;;;;;;;;;21.51;100.00;101475.19;5322182;27;19924;-80
2022/09/17 08:28:14;;;;;;;;;;;;;;;21.99;100.00;101467.09;5323803;27;19920;-80
2022/09/17 08:30:47;;;;;;;;;;;;;;;23.03;100.00;101467.72;5322194;27;19946;-80
2022/09/17 08:33:18;;;;;;;;;;;;;;;23.51;100.00;101472.91;5310410;27;19998;-81
2022/09/17 08:35:53;;;;;;;;;;;;;;;23.88;100.00;101470.53;5315198;27;19922;-79
2022/09/17 08:38:25;;;;;;;;;;;;;;;24.20;100.00;101475.19;5321461;27;19916;-79
2022/09/17 08:41:08;;;;;;;;;;;;;;;24.80;100.00;101478.38;5312681;27;19924;-80
2022/09/17 08:43:58;;;;;;;;;;;;;;;25.64;100.00;101481.59;5311005;27;20509;-80
2022/09/17 08:46:32;;;;;;;;;;;;;;;26.15;100.00;101475.97;5326565;27;19927;-80
2022/09/17 08:49:04;;;;;;;;;;;;;;;26.86;100.00;101481.66;5310185;27;19916;-80
2022/09/17 08:51:41;;;;;;;;;;;;;;;27.45;100.00;101495.41;5315239;27;19961;-79
2022/09/17 08:54:27;;;;;;;;;;;;;;;26.75;97.71;101486.06;5312019;27;19953;-80
2022/09/17 08:57:07;;;;;;;;;;;;;;;25.90;100.00;101485.09;5312590;27;19932;-80
2022/09/17 08:59:56;;;;;;;;;;;;;;;26.71;100.00;101484.88;5311457;27;19942;-80
2022/09/17 09:02:35;;;;;;;;;;;;;;;27.95;100.00;101489.41;5308192;27;19931;-79
2022/09/17 09:05:09;;;;;;;;;;;;;;;27.73;98.66;101489.19;5313811;27;19931;-79
2022/09/17 09:07:46;;;;;;;;;;;;;;;26.40;100.00;101487.63;5317189;27;19946;-80
2022/09/17 09:10:22;;;;;;;;;;;;;;;25.24;100.00;101495.63;5324589;27;19935;-79
2022/09/17 09:12:55;;;;;;;;;;;;;;;23.99;100.00;101490.78;5328182;27;20334;-80
2022/09/17 09:15:31;;;;;;;;;;;;;;;22.50;100.00;101495.69;5316257;27;20406;-79
2022/09/17 09:18:11;;;;;;;;;;;;;;;21.17;100.00;101497.69;5314713;27;19924;-80
2022/09/17 09:20:47;;;;;;;;;;;;;;;20.35;100.00;101491.66;5308183;27;19920;-79
2022/09/17 09:23:30;;;;;;;;;;;;;;;20.26;100.00;101495.53;5309820;27;19924;-79
2022/09/17 09:26:17;;;;;;;;;;;;;;;20.82;100.00;101503.84;5314481;27;19971;-79
2022/09/17 09:29:03;;;;;;;;;;;;;;;22.68;100.00;101488.81;5350897;27;20372;-80
2022/09/17 09:31:37;;;;;;;;;;;;;;;24.73;100.00;101496.69;5313040;27;19981;-81
2022/09/17 09:34:09;;;;;;;;;;;;;;;25.72;100.00;101491.41;5345173;27;20857;-81
2022/09/17 09:36:40;;;;;;;;;;;;;;;27.29;100.00;101491.50;5318089;27;19916;-79
2022/09/17 09:39:19;;;;;;;;;;;;;;;28.69;97.49;101485.03;5319412;27;20376;-79
2022/09/17 09:41:53;;;;;;;;;;;;;;;29.16;73.43;101495.72;5320996;27;19924;-80
2022/09/17 09:44:24;;;;;;;;;;;;;;;28.56;77.60;101488.91;5321668;27;19931;-80
2022/09/17 09:47:31;;;;;;;;;;;;;;;27.38;95.63;101490.06;5324300;27;20372;-80
2022/09/17 09:50:11;;;;;;;;;;;;;;;25.64;100.00;101494.44;5273968;28;19920;-80
2022/09/17 09:53:01;;;;;;;;;;;;;;;24.17;100.00;101498.25;5316773;28;19924;-78
2022/09/17 09:55:51;;;;;;;;;;;;;;;21.85;100.00;101485.19;5329562;27;19956;-79
2022/09/17 09:58:23;;;;;;;;;;;;;;;20.96;100.00;101504.81;5328993;27;19926;-78
2022/09/17 10:00:57;;;;;;;;;;;;;;;20.35;100.00;101495.22;5322406;27;19966;-78
2022/09/17 10:03:31;;;;;;;;;;;;;;;20.57;100.00;101495.25;5328014;27;19962;-78
2022/09/17 10:06:06;;;;;;;;;;;;;;;21.80;100.00;101495.00;5321689;27;20366;-79
2022/09/17 10:08:38;;;;;;;;;;;;;;;22.48;100.00;101492.34;5322890;27;19916;-79
2022/09/17 10:11:10;;;;;;;;;;;;;;;23.50;100.00;101498.44;5322335;27;19970;-79
2022/09/17 10:13:42;;;;;;;;;;;;;;;24.65;100.00;101492.34;5323282;27;20370;-79
2022/09/17 10:16:24;;;;;;;;;;;;;;;24.20;100.00;101502.44;5322468;27;19916;-80
2022/09/17 10:19:25;;;;;;;;;;;;;;;24.39;100.00;101490.59;5322138;27;19922;-79
2022/09/17 10:21:56;;;;;;;;;;;;;;;26.23;100.00;101492.88;5312988;28;19924;-80
2022/09/17 10:24:28;;;;;;;;;;;;;;;28.36;80.47;101498.41;5322951;27;19924;-78
2022/09/17 10:27:01;;;;;;;;;;;;;;;30.32;66.50;101480.16;5322937;27;19927;-78
2022/09/17 10:29:33;;;;;;;;;;;;;;;31.63;64.32;101488.09;5324049;27;20027;-78
2022/09/17 10:32:05;;;;;;;;;;;;;;;33.32;60.76;101488.34;5324083;27;20455;-78
2022/09/17 10:34:37;;;;;;;;;;;;;;;32.96;57.03;101482.03;5321792;28;19992;-78
2022/09/17 10:37:28;;;;;;;;;;;;;;;29.54;65.18;101494.03;5322947;27;19927;-78
2022/09/17 10:39:59;;;;;;;;;;;;;;;25.86;80.11;101500.28;5323367;27;19967;-81
2022/09/17 10:42:30;;;;;;;;;;;;;;;23.70;100.00;101484.81;5321822;27;19943;-81
2022/09/17 10:45:02;;;;;;;;;;;;;;;22.03;100.00;101486.53;5322291;27;20019;-80
2022/09/17 10:47:36;;;;;;;;;;;;;;;20.37;100.00;101487.75;5319923;27;20366;-80
2022/09/17 10:50:15;;;;;;;;;;;;;;;21.00;100.00;101489.00;5332497;27;19927;-80
2022/09/17 10:52:48;;;;;;;;;;;;;;;22.68;100.00;101486.09;5321801;27;20379;-80
2022/09/17 10:55:35;;;;;;;;;;;;;;;22.83;100.00;101484.03;5322808;27;20442;-77
2022/09/17 10:58:06;;;;;;;;;;;;;;;22.29;100.00;101485.81;5322808;28;19927;-79
2022/09/17 11:01:00;;;;;;;;;;;;;;;22.15;100.00;101484.06;5323518;27;20380;-78
2022/09/17 11:03:40;;;;;;;;;;;;;;;22.56;100.00;101488.59;5301510;28;19920;-79
2022/09/17 11:06:31;;;;;;;;;;;;;;;24.43;100.00;101488.28;5315537;27;21339;-78
2022/09/17 11:09:25;;;;;;;;;;;;;;;23.48;100.00;101483.41;5322594;27;19926;-78
2022/09/17 11:11:56;;;;;;;;;;;;;;;22.82;100.00;101482.34;5325318;27;19974;-78
2022/09/17 11:14:36;;;;;;;;;;;;;;;22.08;100.00;101474.00;5320121;27;19923;-79
2022/09/17 11:17:14;;;;;;;;;;;;;;;22.01;100.00;101475.03;5322379;27;19920;-79
2022/09/17 11:19:45;;;;;;;;;;;;;;;22.55;100.00;101473.34;5325737;27;20376;-79
2022/09/17 11:22:30;;;;;;;;;;;;;;;24.20;100.00;101470.56;5323071;27;19920;-79
2022/09/17 11:25:10;;;;;;;;;;;;;;;25.82;100.00;101469.00;5321456;27;20372;-79
2022/09/17 11:27:46;;;;;;;;;;;;;;;27.83;97.32;101472.13;5356915;27;19927;-79
2022/09/17 11:30:19;;;;;;;;;;;;;;;28.36;85.07;101468.22;5322824;28;19943;-79
2022/09/17 11:33:07;;;;;;;;;;;;;;;29.34;71.53;101464.38;5321358;27;19955;-80
2022/09/17 11:35:42;;;;;;;;;;;;;;;28.83;80.59;101476.22;5321791;27;19916;-80
2022/09/17 11:38:23;;;;;;;;;;;;;;;28.27;80.18;101464.22;5315903;27;20089;-79
2022/09/17 11:41:05;;;;;;;;;;;;;;;27.13;87.50;101458.25;5320147;27;19916;-79
2022/09/17 11:43:39;;;;;;;;;;;;;;;24.86;100.00;101465.75;5322955;27;19920;-79
2022/09/17 11:46:31;;;;;;;;;;;;;;;23.30;100.00;101459.53;5321678;27;19920;-78
2022/09/17 11:49:06;;;;;;;;;;;;;;;23.41;100.00;101465.19;5319448;27;19973;-79
2022/09/17 12:03:28;;;;;;;3.90;1.10;;;;;;;24.85;100.00;101454.00;5346704;27;1270673;-80
2022/09/17 12:06:08;;;;;;;3.33;1.10;;;;;;;25.78;100.00;101448.69;5380972;27;20027;-80
2022/09/17 12:09:24;;;;;;;3.17;1.10;;;;;;;27.26;100.00;101457.19;5384780;27;20038;-80
2022/09/17 12:12:21;;;;;;;3.38;1.10;;;;;;;27.43;92.20;101449.09;5382464;27;20042;-80
2022/09/17 12:14:58;;;;;;;3.83;1.00;;;;;;;27.90;76.45;101443.47;5383076;27;20066;-79
2022/09/17 12:17:40;;;;;;;4.68;1.42;;;;;;;27.45;67.35;101435.97;5381602;27;20049;-80
2022/09/17 12:20:31;;;;;;;4.88;1.20;;;;;;;28.52;79.65;101436.41;5373292;27;20106;-80
2022/09/17 12:23:10;;;;;;;4.53;1.10;;;;;;;27.31;80.41;101440.91;5386702;27;20065;-80
2022/09/17 12:25:55;;;;;;;4.57;1.00;;;;;;;25.96;87.23;101432.28;5385902;27;20019;-80
2022/09/17 12:28:47;;;;;;;5.20;1.25;;;;;;;25.55;91.98;101430.25;5385558;27;20472;-80
2022/09/17 12:31:31;;;;;;;3.58;1.02;;;;;;;27.35;90.40;101424.81;5384227;27;20046;-80
2022/09/17 12:34:32;;;;;;;7.00;1.65;;;;;;;26.42;94.00;101421.75;5384956;27;20034;-80
2022/09/17 12:37:47;;;;;;;5.47;1.50;;;;;;;26.41;100.00;101426.38;5384700;27;20060;-80
2022/09/17 12:40:43;;;;;;;4.20;1.30;;;;;;;26.89;94.27;101430.03;5337058;27;20035;-80
2022/09/17 12:43:30;;;;;;;5.13;1.85;;;;;;;28.25;85.40;101412.38;5378827;27;20027;-80
2022/09/17 12:46:16;;;;;;;6.05;1.20;;;;;;;26.12;100.00;101417.16;5350049;27;20509;-80
2022/09/17 12:49:12;;;;;;;4.93;1.40;;;;;;;26.66;100.00;101413.59;5380291;27;20023;-80
2022/09/17 12:51:57;;;;;;;4.63;1.10;;;;;;;27.26;75.58;101410.63;5383806;27;20035;-80
2022/09/17 12:54:46;;;;;;;4.63;1.40;;;;;;;26.10;90.19;101402.84;5385179;27;20035;-80
2022/09/17 12:57:31;;;;;;;6.45;1.60;;;;;;;24.08;100.00;101410.47;5385605;27;20015;-80
2022/09/17 13:00:09;;;;;;;5.22;1.27;;;;;;;22.42;100.00;101409.78;5384149;27;20027;-80
2022/09/17 13:02:45;;;;;;;6.90;1.70;;;;;;;22.03;100.00;101411.31;5377478;27;20051;-80
2022/09/17 13:05:53;;;;;;;10.73;2.05;;;;;;;21.34;100.00;101417.69;5369724;27;20027;-80
2022/09/17 13:08:34;;;;;;;6.25;1.70;;;;;;;21.09;100.00;101414.56;5370803;27;20027;-79
2022/09/17 13:11:24;;;;;;;6.63;2.08;;;;;;;23.40;93.78;101405.50;5348158;27;20027;-78
2022/09/17 13:14:22;;;;;;;9.20;1.90;;;;;;;25.34;56.97;101412.44;5370052;27;20025;-79
2022/09/17 13:17:04;;;;;;;6.57;1.45;;;;;;;27.21;46.58;101401.47;5368990;27;20027;-79
2022/09/17 13:20:00;;;;;;;9.35;1.90;;;;;;;28.57;44.43;101403.59;5359521;27;20066;-79